Time;durP1;ratioP1;P1;durP2;ratioP2;P2;SDS_P1;SDS_P2;PMS_P1;PMS_P2;Temp;Humidity;BMP_temperature;BMP_pressure;BME280_temperature;BME280_humidity;BME280_pressure;Samples;Min_cycle;Max_cycle;Signal;HPM_P1;HPM_P2
2022/01/19 00:02:05;;;;;;;37.90;14.65;;;;;;;1.21;100.00;103359.06;5053596;28;20068;-70
2022/01/19 00:05:01;;;;;;;82.40;16.25;;;;;;;1.21;100.00;103352.88;5040387;28;20323;-71
2022/01/19 00:07:43;;;;;;;42.88;15.20;;;;;;;1.15;100.00;103345.63;5054943;28;20052;-71
2022/01/19 00:10:18;;;;;;;49.33;14.93;;;;;;;1.11;100.00;103338.44;5053929;28;20606;-70
2022/01/19 00:12:59;;;;;;;28.63;13.95;;;;;;;1.14;100.00;103335.91;5056097;28;20074;-70
2022/01/19 00:15:31;;;;;;;44.10;15.90;;;;;;;1.06;100.00;103332.06;5052539;28;20048;-70
2022/01/19 00:18:20;;;;;;;32.88;13.82;;;;;;;1.02;100.00;103337.97;5056999;28;20056;-70
2022/01/19 00:21:03;;;;;;;38.95;13.85;;;;;;;1.04;100.00;103346.81;5056133;28;20051;-70
2022/01/19 00:23:34;;;;;;;33.47;13.48;;;;;;;0.99;100.00;103341.38;5053675;28;20135;-71
2022/01/19 00:26:07;;;;;;;32.10;13.57;;;;;;;0.96;100.00;103345.59;5038344;28;20139;-71
2022/01/19 00:28:41;;;;;;;33.30;13.40;;;;;;;0.95;100.00;103349.94;5039319;28;20452;-71
2022/01/19 00:31:22;;;;;;;29.42;13.00;;;;;;;0.97;100.00;103319.38;5054927;28;20055;-70
2022/01/19 00:33:53;;;;;;;35.22;14.15;;;;;;;0.92;100.00;103300.75;5056368;28;20047;-70
2022/01/19 00:36:23;;;;;;;49.35;13.20;;;;;;;0.81;100.00;103293.19;5035780;28;20442;-70
2022/01/19 00:38:55;;;;;;;25.23;12.27;;;;;;;0.78;100.00;103275.50;5054068;28;20048;-71
2022/01/19 00:41:38;;;;;;;44.03;14.43;;;;;;;0.69;100.00;103259.31;5053562;28;20121;-72
2022/01/19 00:44:14;;;;;;;25.42;12.77;;;;;;;0.71;100.00;103249.78;5054185;28;20048;-71
2022/01/19 00:46:43;;;;;;;28.00;12.10;;;;;;;0.66;100.00;103252.19;5020839;28;20177;-71
2022/01/19 00:49:15;;;;;;;27.92;13.70;;;;;;;0.63;100.00;103245.88;5056882;28;20055;-70
2022/01/19 00:52:08;;;;;;;30.55;13.07;;;;;;;0.61;100.00;103245.81;5053323;28;20051;-70
2022/01/19 00:55:02;;;;;;;26.73;10.93;;;;;;;0.53;100.00;103249.81;5052929;28;20060;-70
2022/01/19 00:57:32;;;;;;;29.42;11.95;;;;;;;0.51;100.00;103257.63;5053740;28;20160;-70
2022/01/19 01:00:01;;;;;;;25.92;12.50;;;;;;;0.48;100.00;103253.97;5037543;28;20586;-70
2022/01/19 01:02:32;;;;;;;26.23;11.48;;;;;;;0.43;100.00;103253.72;5051619;28;20423;-70
2022/01/19 01:05:02;;;;;;;29.67;12.82;;;;;;;0.45;100.00;103252.06;5036494;28;20480;-70
2022/01/19 01:07:38;;;;;;;23.73;11.32;;;;;;;0.46;100.00;103247.69;5056475;28;20139;-70
2022/01/19 01:10:13;;;;;;;26.15;11.70;;;;;;;0.34;100.00;103235.81;5023406;28;20076;-70
2022/01/19 01:12:49;;;;;;;28.08;12.13;;;;;;;0.23;100.00;103218.59;5056287;28;20087;-70
2022/01/19 01:15:46;;;;;;;23.73;10.68;;;;;;;0.20;100.00;103213.19;5038536;28;20234;-70
2022/01/19 01:18:19;;;;;;;21.15;10.32;;;;;;;0.15;100.00;103201.56;5052378;28;20052;-70
2022/01/19 01:20:52;;;;;;;21.00;11.10;;;;;;;0.09;100.00;103189.06;5036049;28;20048;-72
2022/01/19 01:23:23;;;;;;;26.10;11.52;;;;;;;0.08;100.00;103181.09;5036018;28;20056;-70
2022/01/19 01:25:52;;;;;;;22.42;11.52;;;;;;;0.03;100.00;103177.34;5054054;28;20044;-70
2022/01/19 01:28:22;;;;;;;28.40;12.20;;;;;;;0.01;100.00;103182.53;5052350;28;20056;-70
2022/01/19 01:30:51;;;;;;;29.70;12.68;;;;;;;-0.05;100.00;103180.50;5053628;28;20049;-70
2022/01/19 01:33:22;;;;;;;25.70;11.57;;;;;;;-0.08;100.00;103172.47;5036792;28;20066;-70
2022/01/19 01:35:52;;;;;;;32.67;12.43;;;;;;;-0.09;100.00;103170.66;5056153;28;20170;-74
2022/01/19 01:38:19;;;;;;;25.85;11.40;;;;;;;-0.07;100.00;103165.50;5052575;28;20233;-74
2022/01/19 01:41:08;;;;;;;24.40;11.13;;;;;;;-0.05;100.00;103154.25;5053648;28;20044;-74
2022/01/19 01:43:36;;;;;;;25.60;12.43;;;;;;;-0.07;100.00;103136.63;5055665;28;20094;-74
2022/01/19 01:46:12;;;;;;;26.77;11.95;;;;;;;-0.09;100.00;103125.16;5054171;28;20050;-74
2022/01/19 01:48:44;;;;;;;27.50;11.68;;;;;;;-0.08;100.00;103130.50;5054290;28;20058;-75
2022/01/19 01:54:00;;;;;;;26.48;12.55;;;;;;;-0.16;100.00;103130.94;5052532;28;20130;-74
2022/01/19 01:56:28;;;;;;;23.27;11.82;;;;;;;-0.13;100.00;103132.00;5055148;28;20062;-75
2022/01/19 01:58:56;;;;;;;30.23;12.20;;;;;;;-0.13;100.00;103116.25;5051026;28;20059;-76
2022/01/19 02:01:26;;;;;;;26.60;11.70;;;;;;;-0.11;100.00;103114.59;5053995;28;20048;-72
2022/01/19 02:04:00;;;;;;;26.83;12.10;;;;;;;-0.12;100.00;103104.94;5051004;28;20064;-72
2022/01/19 02:06:47;;;;;;;29.35;13.13;;;;;;;-0.12;100.00;103097.06;5035344;28;20397;-71
2022/01/19 02:09:19;;;;;;;33.97;14.18;;;;;;;-0.07;100.00;103095.56;5051248;28;20067;-72
2022/01/19 02:23:17;;;;;;;39.08;14.60;;;;;;;0.05;100.00;103091.69;5056275;28;20059;-76
2022/01/19 02:25:48;;;;;;;37.63;13.80;;;;;;;0.12;100.00;103089.44;5053577;28;20143;-75
2022/01/19 02:31:36;;;;;;;30.02;15.20;;;;;;;0.24;100.00;103078.59;5053496;28;20044;-75
2022/01/19 02:40:09;;;;;;;35.20;13.70;;;;;;;0.37;100.00;103064.28;5052808;28;20041;-75
2022/01/19 02:42:32;;;;;;;36.72;16.15;;;;;;;0.50;100.00;103055.25;5054785;28;20672;-75
2022/01/19 02:50:56;;;;;;;39.90;15.82;;;;;;;0.66;100.00;103030.53;5053378;28;20187;-77
2022/01/19 02:53:25;;;;;;;39.17;15.10;;;;;;;0.68;100.00;103021.00;5052538;28;20040;-75
2022/01/19 02:55:53;;;;;;;40.53;15.48;;;;;;;0.72;100.00;103012.44;5055298;28;20049;-75
2022/01/19 02:58:23;;;;;;;41.97;14.90;;;;;;;0.76;100.00;102993.31;5053516;28;20056;-75
2022/01/19 03:09:16;;;;;;;31.98;14.25;;;;;;;0.86;100.00;102963.97;4976781;28;20768;-75
2022/01/19 03:11:43;;;;;;;34.40;14.07;;;;;;;0.85;100.00;102949.03;5053154;28;20061;-75
2022/01/19 03:14:12;;;;;;;36.38;14.80;;;;;;;0.89;100.00;102942.19;5052121;28;20044;-77
2022/01/19 03:16:40;;;;;;;42.10;15.60;;;;;;;0.96;100.00;102935.44;5052908;28;20044;-75
2022/01/19 03:19:10;;;;;;;40.03;16.85;;;;;;;0.99;100.00;102932.91;5050399;28;20590;-76
2022/01/19 03:21:39;;;;;;;41.55;16.90;;;;;;;1.02;100.00;102935.66;5052363;28;20131;-75
2022/01/19 03:24:07;;;;;;;43.58;16.75;;;;;;;1.06;100.00;102943.75;5051947;28;20047;-74
2022/01/19 03:26:37;;;;;;;42.45;17.52;;;;;;;1.07;100.00;102939.38;5053862;28;20162;-75
2022/01/19 03:29:05;;;;;;;43.00;16.70;;;;;;;1.06;100.00;102924.47;5053887;28;20137;-75
2022/01/19 03:31:33;;;;;;;43.17;17.33;;;;;;;1.08;100.00;102915.78;5053764;28;20049;-74
2022/01/19 03:34:01;;;;;;;43.50;16.73;;;;;;;1.09;100.00;102920.22;5056222;28;20083;-75
2022/01/19 03:36:29;;;;;;;47.17;17.55;;;;;;;1.13;100.00;102926.50;5059907;28;20088;-76
2022/01/19 03:38:57;;;;;;;50.08;19.42;;;;;;;1.19;100.00;102934.66;5059399;28;20488;-74
2022/01/19 03:41:25;;;;;;;47.85;20.83;;;;;;;1.22;100.00;102932.09;5055987;28;20155;-74
2022/01/19 03:43:55;;;;;;;47.60;20.60;;;;;;;1.25;100.00;102926.97;5057074;28;20550;-75
2022/01/19 03:46:32;;;;;;;48.35;20.27;;;;;;;1.33;100.00;102927.28;5052959;28;20049;-75
2022/01/19 03:49:09;;;;;;;55.42;20.98;;;;;;;1.38;100.00;102922.19;5057546;28;20156;-75
2022/01/19 03:51:38;;;;;;;56.20;23.67;;;;;;;1.46;100.00;102926.94;5054885;28;20528;-74
2022/01/19 03:54:06;;;;;;;62.20;23.20;;;;;;;1.52;100.00;102925.38;5056836;28;20177;-75
2022/01/19 03:56:35;;;;;;;55.65;20.92;;;;;;;1.48;100.00;102922.63;5057492;28;20049;-71
2022/01/19 03:59:06;;;;;;;65.55;22.10;;;;;;;1.52;100.00;102922.75;5055789;28;20053;-71
2022/01/19 04:01:38;;;;;;;55.30;22.52;;;;;;;1.57;100.00;102919.44;5054970;28;20056;-71
2022/01/19 04:07:30;;;;;;;63.60;22.70;;;;;;;1.62;100.00;102915.25;4977127;28;20174;-71
2022/01/19 04:10:04;;;;;;;61.13;22.48;;;;;;;1.66;100.00;102906.63;5032357;28;21229;-73
2022/01/19 04:12:45;;;;;;;69.75;24.73;;;;;;;1.72;100.00;102903.34;5054084;28;20040;-71
2022/01/19 04:15:19;;;;;;;66.82;23.80;;;;;;;1.76;100.00;102912.25;5054244;28;20059;-73
2022/01/19 04:17:54;;;;;;;79.65;26.10;;;;;;;1.81;100.00;102902.78;5054161;28;20044;-73
2022/01/19 04:20:26;;;;;;;71.85;24.05;;;;;;;1.86;100.00;102909.13;5051786;28;20127;-73
2022/01/19 04:23:05;;;;;;;70.13;25.10;;;;;;;1.95;100.00;102906.81;5055283;28;20041;-71
2022/01/19 04:25:37;;;;;;;75.95;26.50;;;;;;;1.97;100.00;102907.75;5054928;28;20056;-71
2022/01/19 04:28:07;;;;;;;69.70;23.75;;;;;;;1.99;100.00;102907.81;5055221;28;20075;-73
2022/01/19 04:31:01;;;;;;;57.97;23.80;;;;;;;2.00;100.00;102913.13;5027498;28;20063;-71
2022/01/19 04:33:40;;;;;;;69.38;24.77;;;;;;;2.03;100.00;102909.75;5037030;28;20786;-71
2022/01/19 04:36:26;;;;;;;75.30;27.90;;;;;;;2.06;100.00;102901.97;5056664;28;20106;-72
2022/01/19 04:39:23;;;;;;;71.63;25.38;;;;;;;2.07;100.00;102893.19;5058511;28;20119;-74
2022/01/19 04:44:54;;;;;;;63.40;24.05;;;;;;;2.08;100.00;102873.94;5054343;28;20140;-77
2022/01/19 05:04:08;;;;;;;66.60;24.90;;;;;;;2.11;100.00;102857.31;5053687;28;20427;-76
2022/01/19 05:07:15;;;;;;;60.65;22.70;;;;;;;2.13;100.00;102850.38;5055893;28;20064;-76
2022/01/19 05:10:03;;;;;;;64.47;24.67;;;;;;;2.14;100.00;102842.53;5054997;28;20056;-75
2022/01/19 05:15:18;;;;;;;76.93;26.73;;;;;;;2.18;100.00;102832.97;5055043;28;20334;-76
2022/01/19 05:17:52;;;;;;;70.65;22.80;;;;;;;2.19;100.00;102834.78;5051148;28;20155;-71
2022/01/19 05:20:39;;;;;;;63.22;22.95;;;;;;;2.20;100.00;102831.31;5038969;28;20048;-73
2022/01/19 05:23:10;;;;;;;57.47;23.05;;;;;;;2.19;100.00;102824.25;5050954;28;20155;-72
2022/01/19 05:26:11;;;;;;;62.88;25.05;;;;;;;2.21;100.00;102820.84;5054355;28;20085;-72
2022/01/19 05:29:06;;;;;;;57.60;22.65;;;;;;;2.20;100.00;102815.50;5054907;28;20056;-72
2022/01/19 05:31:39;;;;;;;61.15;24.90;;;;;;;2.22;100.00;102817.34;5054648;28;20071;-75
2022/01/19 05:34:07;;;;;;;64.25;24.67;;;;;;;2.23;100.00;102812.97;5054599;28;20044;-76
2022/01/19 05:37:02;;;;;;;60.40;23.55;;;;;;;2.24;100.00;102810.38;5052911;28;20071;-73
2022/01/19 05:39:30;;;;;;;65.43;23.67;;;;;;;2.25;100.00;102803.41;5052845;28;20126;-71
2022/01/19 05:42:03;;;;;;;61.92;24.15;;;;;;;2.26;100.00;102805.16;5036940;28;20049;-72
2022/01/19 05:44:38;;;;;;;71.40;25.17;;;;;;;2.28;100.00;102803.47;5052878;28;20044;-72
2022/01/19 05:47:10;;;;;;;65.80;24.85;;;;;;;2.30;100.00;102798.25;5052879;28;20057;-70
2022/01/19 05:49:40;;;;;;;65.82;24.75;;;;;;;2.32;100.00;102799.22;5051151;28;20084;-73
2022/01/19 05:52:46;;;;;;;69.00;23.88;;;;;;;2.32;100.00;102786.94;5053146;28;20438;-71
2022/01/19 05:55:18;;;;;;;62.72;24.20;;;;;;;2.33;100.00;102786.06;5054435;28;20044;-73
2022/01/19 05:57:49;;;;;;;62.83;25.35;;;;;;;2.33;100.00;102767.63;5052138;28;20123;-71
2022/01/19 06:00:21;;;;;;;83.55;27.35;;;;;;;2.36;100.00;102772.13;5055194;28;20644;-73
2022/01/19 06:03:00;;;;;;;70.80;25.20;;;;;;;2.39;100.00;102759.94;5038115;28;20076;-73
2022/01/19 06:05:51;;;;;;;73.65;25.52;;;;;;;2.43;100.00;102753.94;5050951;28;20049;-72
2022/01/19 06:08:45;;;;;;;74.80;26.48;;;;;;;2.44;100.00;102746.94;5055180;28;20044;-73
2022/01/19 06:11:16;;;;;;;66.40;26.23;;;;;;;2.45;100.00;102745.16;5035715;28;20051;-73
2022/01/19 06:13:49;;;;;;;82.85;26.65;;;;;;;2.46;100.00;102744.34;5035579;28;20301;-70
2022/01/19 06:16:33;;;;;;;64.78;25.10;;;;;;;2.46;100.00;102739.94;5051526;28;20049;-74
2022/01/19 06:19:04;;;;;;;83.97;27.60;;;;;;;2.49;100.00;102737.41;5053338;28;20053;-71
2022/01/19 06:21:42;;;;;;;67.38;25.45;;;;;;;2.48;100.00;102727.72;5020986;28;20447;-73
2022/01/19 06:24:29;;;;;;;73.68;24.50;;;;;;;2.49;100.00;102726.00;5035614;28;20060;-72
2022/01/19 06:26:59;;;;;;;71.15;25.83;;;;;;;2.51;100.00;102719.03;5053611;28;20129;-72
2022/01/19 06:29:40;;;;;;;81.30;27.88;;;;;;;2.52;100.00;102713.81;5033017;28;20080;-73
2022/01/19 06:32:35;;;;;;;62.10;24.98;;;;;;;2.53;100.00;102707.66;5048681;28;20143;-71
2022/01/19 06:35:09;;;;;;;75.32;27.52;;;;;;;2.55;100.00;102700.69;5053728;28;20122;-71
2022/01/19 06:37:46;;;;;;;79.07;28.10;;;;;;;2.58;100.00;102694.63;5053141;28;20050;-71
2022/01/19 06:40:30;;;;;;;75.78;28.98;;;;;;;2.61;100.00;102700.91;5053826;28;20581;-71
2022/01/19 06:43:03;;;;;;;87.20;30.23;;;;;;;2.64;100.00;102697.47;5053243;28;20048;-71
2022/01/19 06:45:33;;;;;;;94.90;30.38;;;;;;;2.65;100.00;102693.09;5036829;28;20106;-71
2022/01/19 06:48:07;;;;;;;74.60;30.30;;;;;;;2.70;100.00;102692.38;5045448;28;20635;-71
2022/01/19 06:50:36;;;;;;;89.72;34.28;;;;;;;2.74;100.00;102675.81;5056774;28;20056;-71
2022/01/19 06:56:09;;;;;;;90.82;35.15;;;;;;;2.85;100.00;102667.31;5037863;28;20054;-71
2022/01/19 06:58:39;;;;;;;95.43;34.80;;;;;;;2.89;100.00;102679.72;5055262;28;20060;-73
2022/01/19 07:01:11;;;;;;;;;;;;;;;2.97;100.00;102680.84;5034280;28;20192;-73
2022/01/19 07:03:41;;;;;;;108.30;36.20;;;;;;;2.99;100.00;102673.88;5054966;28;19955;-71
2022/01/19 07:06:16;;;;;;;100.20;36.63;;;;;;;2.99;100.00;102663.31;5054645;28;20131;-71
2022/01/19 07:08:52;;;;;;;105.95;36.30;;;;;;;3.03;100.00;102665.22;5054536;28;20043;-71
2022/01/19 07:11:23;;;;;;;107.40;38.63;;;;;;;3.08;100.00;102662.69;5056097;28;20087;-73
2022/01/19 07:14:08;;;;;;;109.88;38.90;;;;;;;3.10;100.00;102655.69;5052386;28;20079;-70
2022/01/19 07:16:44;;;;;;;111.45;37.67;;;;;;;3.13;100.00;102655.78;5051171;28;20049;-71
2022/01/19 07:19:22;;;;;;;104.93;35.73;;;;;;;3.15;100.00;102652.34;5052740;28;20143;-71
2022/01/19 07:21:53;;;;;;;124.00;40.08;;;;;;;3.16;100.00;102656.75;5052703;28;20572;-72
2022/01/19 07:24:24;;;;;;;122.72;37.88;;;;;;;3.15;100.00;102657.63;5053515;28;20084;-71
2022/01/19 07:27:10;;;;;;;105.05;36.60;;;;;;;3.16;100.00;102651.50;5052509;28;20368;-71
2022/01/19 07:30:04;;;;;;;89.47;35.70;;;;;;;3.24;100.00;102653.47;5053307;28;20129;-72
2022/01/19 07:33:12;;;;;;;106.43;35.80;;;;;;;3.25;100.00;102650.88;5033828;28;20047;-71
2022/01/19 07:35:51;;;;;;;105.13;35.58;;;;;;;3.28;100.00;102650.03;5032897;28;20052;-72
2022/01/19 07:38:26;;;;;;;98.38;36.60;;;;;;;3.30;100.00;102653.63;5048724;28;20053;-70
2022/01/19 07:40:55;;;;;;;90.72;35.60;;;;;;;3.31;100.00;102660.69;5055136;28;20507;-71
2022/01/19 07:43:33;;;;;;;99.25;36.75;;;;;;;3.31;100.00;102653.66;5035201;28;20053;-72
2022/01/19 07:46:07;;;;;;;95.88;36.22;;;;;;;3.29;100.00;102651.84;5030262;28;20056;-72
2022/01/19 07:48:39;;;;;;;98.82;32.85;;;;;;;3.30;100.00;102646.63;5053015;28;20048;-70
2022/01/19 07:51:13;;;;;;;101.70;35.70;;;;;;;3.31;100.00;102644.84;5052652;28;20138;-71
2022/01/19 07:53:46;;;;;;;87.50;34.00;;;;;;;3.31;100.00;102640.47;5049588;28;20167;-72
2022/01/19 07:56:23;;;;;;;96.22;37.90;;;;;;;3.32;100.00;102637.00;5052456;28;20070;-70
2022/01/19 07:58:55;;;;;;;95.05;36.10;;;;;;;3.33;100.00;102635.22;5051639;28;20063;-71
2022/01/19 08:01:31;;;;;;;95.18;36.25;;;;;;;3.34;100.00;102635.28;5053906;28;20055;-72
2022/01/19 08:04:13;;;;;;;97.03;36.55;;;;;;;3.32;100.00;102626.44;5035348;28;20211;-71
2022/01/19 08:06:43;;;;;;;95.20;34.35;;;;;;;3.35;100.00;102625.59;5051742;28;20049;-71
2022/01/19 08:09:16;;;;;;;84.90;34.22;;;;;;;3.35;100.00;102610.69;5053620;28;20056;-71
2022/01/19 08:11:47;;;;;;;92.68;35.47;;;;;;;3.37;100.00;102602.78;5030147;28;20756;-71
2022/01/19 08:14:25;;;;;;;105.50;37.45;;;;;;;3.38;100.00;102606.34;5052748;28;20372;-71
2022/01/19 08:17:00;;;;;;;87.35;31.88;;;;;;;3.37;100.00;102597.50;5050982;28;20045;-71
2022/01/19 08:19:31;;;;;;;94.90;35.25;;;;;;;3.43;100.00;102604.69;5056308;28;20121;-71
2022/01/19 08:22:21;;;;;;;97.20;32.67;;;;;;;3.39;100.00;102600.19;5054915;28;20554;-70
2022/01/19 08:24:55;;;;;;;89.68;34.67;;;;;;;3.36;100.00;102587.81;5033451;28;20174;-71
2022/01/19 08:27:46;;;;;;;89.68;32.80;;;;;;;3.36;100.00;102595.72;5038796;28;20519;-71
2022/01/19 08:30:25;;;;;;;87.80;33.17;;;;;;;3.36;100.00;102595.72;5055033;28;20877;-71
2022/01/19 08:33:17;;;;;;;84.53;32.55;;;;;;;3.39;100.00;102595.81;5051334;28;20147;-71
2022/01/19 08:35:56;;;;;;;82.57;31.92;;;;;;;3.36;100.00;102595.72;5036082;28;20048;-71
2022/01/19 08:38:46;;;;;;;103.47;33.28;;;;;;;3.39;100.00;102601.09;5055500;28;20048;-71
2022/01/19 08:41:36;;;;;;;;;;;;;;;3.43;100.00;102602.06;5036938;28;20041;-71
2022/01/19 08:44:17;;;;;;;80.28;31.73;;;;;;;3.50;100.00;102596.06;5039049;28;19928;-71
2022/01/19 08:55:32;;;;;;;92.95;33.53;;;;;;;3.61;100.00;102580.50;5051438;28;20284;-71
2022/01/19 08:58:16;;;;;;;80.72;32.67;;;;;;;3.62;100.00;102572.63;5053225;28;20069;-71
2022/01/19 09:00:54;;;;;;;82.00;33.63;;;;;;;3.64;100.00;102562.09;5053948;28;20056;-71
2022/01/19 09:09:42;;;;;;;78.93;27.52;;;;;;;3.74;100.00;102557.06;5041235;28;20052;-71
2022/01/19 09:12:44;;;;;;;76.57;27.58;;;;;;;3.75;100.00;102550.06;5053308;28;20059;-71
2022/01/19 09:15:19;;;;;;;76.60;26.88;;;;;;;3.72;100.00;102539.41;5046056;28;20052;-74
2022/01/19 09:18:02;;;;;;;83.65;28.55;;;;;;;3.73;100.00;102533.28;5049088;28;21154;-71
2022/01/19 09:21:20;;;;;;;79.15;29.23;;;;;;;3.70;100.00;102528.81;5057650;28;20149;-71
2022/01/19 09:23:59;;;;;;;77.72;26.85;;;;;;;3.69;100.00;102523.50;5053723;28;20044;-71
2022/01/19 09:26:48;;;;;;;73.88;28.90;;;;;;;3.69;100.00;102513.81;5054874;28;20934;-71
2022/01/19 09:29:38;;;;;;;69.13;29.00;;;;;;;3.68;100.00;102509.41;5053491;28;20352;-72
2022/01/19 09:32:13;;;;;;;69.07;27.75;;;;;;;3.65;100.00;102495.25;5053070;28;20044;-77
2022/01/19 09:35:06;;;;;;;73.35;28.00;;;;;;;3.61;100.00;102491.66;5053957;28;20142;-71
2022/01/19 09:37:50;;;;;;;75.10;28.42;;;;;;;3.58;100.00;102499.50;5052060;28;20048;-78
2022/01/19 09:40:29;;;;;;;63.40;26.08;;;;;;;3.55;100.00;102500.31;5056333;28;20450;-77
2022/01/19 09:43:07;;;;;;;68.15;27.83;;;;;;;3.57;100.00;102497.69;5055202;28;20075;-77
2022/01/19 09:46:01;;;;;;;69.95;27.35;;;;;;;3.58;100.00;102491.56;5055522;28;20051;-77
2022/01/19 09:48:30;;;;;;;71.60;27.98;;;;;;;3.57;100.00;102491.53;5053251;28;20476;-77
2022/01/19 09:50:58;;;;;;;72.07;27.70;;;;;;;3.55;100.00;102499.41;5056683;28;20056;-77
2022/01/19 09:53:27;;;;;;;67.57;28.25;;;;;;;3.59;100.00;102500.38;5050464;28;20076;-77
2022/01/19 09:55:55;;;;;;;70.63;27.25;;;;;;;3.60;100.00;102499.53;5059162;28;20048;-77
2022/01/19 09:58:24;;;;;;;64.55;24.80;;;;;;;3.59;100.00;102506.53;5059986;28;20048;-77
2022/01/19 10:00:52;;;;;;;64.82;27.58;;;;;;;3.57;100.00;102513.53;5058603;28;20094;-77
2022/01/19 10:03:25;;;;;;;67.80;27.25;;;;;;;3.59;100.00;102522.38;5061981;28;20052;-76
2022/01/19 10:05:59;;;;;;;67.47;28.25;;;;;;;3.59;100.00;102519.75;5056030;28;20052;-77
2022/01/19 10:08:30;;;;;;;66.45;28.48;;;;;;;3.57;100.00;102516.19;5056124;28;20094;-77
2022/01/19 10:17:31;;;;;;;58.10;26.73;;;;;;;3.62;100.00;102511.00;5020624;28;20058;-77
2022/01/19 10:19:58;;;;;;;61.38;27.02;;;;;;;3.58;100.00;102510.06;5054781;28;20048;-76
2022/01/19 10:22:30;;;;;;;68.40;27.35;;;;;;;3.63;100.00;102505.78;5050416;28;20053;-76
2022/01/19 10:25:01;;;;;;;70.85;30.13;;;;;;;3.66;100.00;102499.66;5053527;28;20050;-76
2022/01/19 10:27:35;;;;;;;78.82;32.83;;;;;;;3.66;100.00;102490.00;5052470;28;20052;-76
2022/01/19 10:30:18;;;;;;;81.97;32.60;;;;;;;3.69;100.00;102494.44;5058723;28;20052;-76
2022/01/19 10:32:50;;;;;;;78.40;31.35;;;;;;;3.74;100.00;102498.09;5052702;28;20151;-76
2022/01/19 10:35:24;;;;;;;78.88;30.63;;;;;;;3.76;100.00;102499.00;5056814;28;20644;-76
2022/01/19 10:38:09;;;;;;;74.80;29.58;;;;;;;3.80;100.00;102490.31;5050200;28;20508;-76
2022/01/19 10:41:12;;;;;;;82.70;28.85;;;;;;;3.82;100.00;102485.94;5055150;28;20063;-76
2022/01/19 10:44:04;;;;;;;82.43;31.00;;;;;;;3.83;100.00;102465.72;5053259;28;20072;-76
2022/01/19 10:46:57;;;;;;;87.70;32.15;;;;;;;3.86;100.00;102455.22;5052043;28;20060;-76
2022/01/19 10:49:25;;;;;;;76.43;31.38;;;;;;;3.87;100.00;102452.63;5053938;28;20060;-77
2022/01/19 10:51:57;;;;;;;75.28;33.45;;;;;;;3.90;100.00;102447.41;5051081;28;20737;-78
2022/01/19 10:54:30;;;;;;;79.78;32.58;;;;;;;3.94;100.00;102440.44;5053371;28;20053;-78
2022/01/19 10:56:59;;;;;;;73.68;30.23;;;;;;;4.03;100.00;102422.13;5054170;28;20080;-77
2022/01/19 10:59:44;;;;;;;78.70;30.52;;;;;;;4.04;100.00;102426.56;5053574;28;20048;-77
2022/01/19 11:02:12;;;;;;;68.90;29.05;;;;;;;4.04;100.00;102425.66;5055143;28;21453;-77
2022/01/19 11:04:42;;;;;;;75.93;31.92;;;;;;;4.08;100.00;102420.47;5053666;28;20514;-79
2022/01/19 11:07:12;;;;;;;78.00;30.98;;;;;;;4.08;100.00;102411.66;5049911;28;20151;-79
2022/01/19 11:09:45;;;;;;;76.68;31.50;;;;;;;4.13;100.00;102398.53;5056479;28;20049;-79
2022/01/19 11:12:19;;;;;;;73.18;30.17;;;;;;;4.13;100.00;102404.72;5051369;28;20488;-78
2022/01/19 11:14:47;;;;;;;71.13;29.20;;;;;;;4.14;100.00;102402.94;5054391;28;20052;-78
2022/01/19 11:18:09;;;;;;;67.00;29.88;;;;;;;4.19;100.00;102402.19;5049610;28;20047;-71
2022/01/19 11:21:14;;;;;;;87.70;34.00;;;;;;;4.24;100.00;102399.63;5054922;28;20352;-71
2022/01/19 11:24:05;;;;;;;76.05;30.70;;;;;;;4.29;100.00;102387.38;5034765;28;20056;-71
2022/01/19 11:26:38;;;;;;;76.07;32.28;;;;;;;4.30;100.00;102381.25;5055678;28;20048;-77
2022/01/19 11:29:19;;;;;;;71.13;31.15;;;;;;;4.36;100.00;102378.72;5054805;28;20057;-77
2022/01/19 11:31:49;;;;;;;74.38;32.15;;;;;;;4.55;100.00;102369.38;5053906;28;20070;-77
2022/01/19 11:34:45;;;;;;;72.53;30.30;;;;;;;4.74;100.00;102367.03;5052387;28;20048;-77
2022/01/19 11:37:15;;;;;;;74.47;29.75;;;;;;;4.81;100.00;102359.22;5054427;28;20088;-77
2022/01/19 11:40:05;;;;;;;65.65;28.23;;;;;;;4.84;100.00;102355.72;5056248;28;20783;-77
2022/01/19 11:43:21;;;;;;;68.80;29.77;;;;;;;4.84;100.00;102345.16;5053190;28;20063;-77
2022/01/19 11:45:51;;;;;;;70.05;27.33;;;;;;;4.85;100.00;102337.25;5054118;28;20048;-77
2022/01/19 11:48:21;;;;;;;74.20;31.55;;;;;;;4.82;100.00;102328.38;5053497;28;20071;-77
2022/01/19 11:50:51;;;;;;;68.13;29.33;;;;;;;4.86;100.00;102319.63;5056231;28;20139;-77
2022/01/19 11:53:19;;;;;;;64.95;28.00;;;;;;;4.73;100.00;102320.28;5057459;28;20151;-77
2022/01/19 11:56:04;;;;;;;67.90;29.83;;;;;;;4.78;100.00;102316.84;5056639;28;20233;-77
2022/01/19 11:58:32;;;;;;;74.30;29.35;;;;;;;4.76;100.00;102317.69;5058486;28;20048;-78
2022/01/19 12:01:01;;;;;;;68.85;28.67;;;;;;;4.70;100.00;102300.00;5055452;28;20155;-77
2022/01/19 12:03:32;;;;;;;62.92;29.27;;;;;;;4.84;100.00;102297.53;5053662;28;20177;-76
2022/01/19 12:06:38;;;;;;;64.60;29.15;;;;;;;4.92;100.00;102290.63;5054121;28;20685;-75
2022/01/19 12:09:09;;;;;;;62.50;28.15;;;;;;;4.85;100.00;102297.56;5058409;28;20571;-75
2022/01/19 12:15:55;;;;;;;66.30;27.17;;;;;;;4.81;100.00;102287.78;5056098;28;20410;-71
2022/01/19 12:19:04;;;;;;;69.35;27.10;;;;;;;4.81;100.00;102269.28;5058269;28;20110;-72
2022/01/19 12:22:38;;;;;;;74.03;28.17;;;;;;;4.70;100.00;102268.25;5056080;28;20063;-72
2022/01/19 12:25:56;;;;;;;72.28;30.05;;;;;;;4.79;100.00;102270.13;5027059;28;20701;-72
2022/01/19 12:28:46;;;;;;;63.33;28.08;;;;;;;4.79;100.00;102276.31;5056094;28;20060;-77
2022/01/19 12:31:34;;;;;;;64.65;26.98;;;;;;;4.77;100.00;102269.25;5056797;28;20052;-76
2022/01/19 12:34:22;;;;;;;70.45;29.40;;;;;;;4.72;100.00;102261.22;5058288;28;20052;-76
2022/01/19 12:36:54;;;;;;;65.45;27.88;;;;;;;4.75;100.00;102256.00;5057407;28;20135;-77
2022/01/19 12:39:38;;;;;;;64.20;28.08;;;;;;;4.74;100.00;102250.69;5058003;28;20052;-76
2022/01/19 12:42:13;;;;;;;53.97;26.38;;;;;;;4.66;100.00;102243.50;5057172;28;20131;-75
2022/01/19 12:45:17;;;;;;;56.35;26.13;;;;;;;4.73;100.00;102230.38;5056787;28;20145;-74
2022/01/19 12:47:50;;;;;;;58.40;24.70;;;;;;;4.73;100.00;102231.25;5056795;28;20079;-75
2022/01/19 12:50:45;;;;;;;62.50;28.45;;;;;;;4.80;100.00;102230.50;5057799;28;20079;-74
2022/01/19 12:53:20;;;;;;;56.83;24.10;;;;;;;4.83;100.00;102212.00;5055465;28;20071;-75
2022/01/19 12:55:52;;;;;;;61.60;27.60;;;;;;;4.83;100.00;102214.63;5055238;28;20076;-75
2022/01/19 12:58:24;;;;;;;64.53;27.33;;;;;;;4.84;100.00;102205.84;5056497;28;20053;-75
2022/01/19 13:00:55;;;;;;;58.05;25.05;;;;;;;4.88;100.00;102208.53;5060895;28;20040;-74
2022/01/19 13:03:28;;;;;;;60.75;26.08;;;;;;;4.89;100.00;102211.22;5060329;28;20455;-75
2022/01/19 13:06:02;;;;;;;54.17;24.23;;;;;;;4.94;100.00;102204.22;5056430;28;20053;-75
2022/01/19 13:08:34;;;;;;;54.83;25.40;;;;;;;4.91;100.00;102204.19;5057416;28;20164;-75
2022/01/19 13:11:10;;;;;;;58.70;24.27;;;;;;;4.94;100.00;102192.72;5054321;28;20499;-75
2022/01/19 13:13:54;;;;;;;54.60;24.23;;;;;;;5.01;100.00;102178.75;5055879;28;20055;-75
2022/01/19 13:16:27;;;;;;;59.83;25.35;;;;;;;5.02;100.00;102186.69;5055387;28;20503;-75
2022/01/19 13:19:02;;;;;;;55.30;22.67;;;;;;;5.00;100.00;102177.81;5055627;28;20045;-75
2022/01/19 13:21:35;;;;;;;48.67;20.85;;;;;;;4.99;100.00;102177.84;5050925;28;20499;-75
2022/01/19 13:24:10;;;;;;;51.38;23.23;;;;;;;4.96;100.00;102167.22;5057075;28;20048;-75
2022/01/19 13:26:41;;;;;;;57.08;23.23;;;;;;;4.97;100.00;102164.59;5057214;28;20057;-75
2022/01/19 13:29:17;;;;;;;49.72;20.35;;;;;;;4.99;100.00;102154.03;5058776;28;20555;-75